createdAt,value
2018-04-02T00:02:24.789Z,93.66
2018-04-02T00:04:52.367Z,93.63
2018-04-02T00:07:19.905Z,93.64
2018-04-02T00:09:47.418Z,93.58
2018-04-02T00:12:15.008Z,93.52
2018-04-02T00:14:42.532Z,93.46
2018-04-02T00:17:10.211Z,93.45
2018-04-02T00:19:37.936Z,93.44
2018-04-02T00:22:05.528Z,93.38
2018-04-02T00:24:33.087Z,93.37
2018-04-02T00:27:00.604Z,93.44
2018-04-02T00:29:28.128Z,93.53
2018-04-02T00:31:55.709Z,93.59
2018-04-02T00:34:23.309Z,93.79
2018-04-02T00:36:51.009Z,93.97
2018-04-02T00:39:18.557Z,94.08
2018-04-02T00:41:46.212Z,94.18
2018-04-02T00:44:13.723Z,94.24
2018-04-02T00:46:41.265Z,94.18
2018-04-02T00:49:08.875Z,94.26
2018-04-02T00:51:37.307Z,94.42
2018-04-02T00:54:06.542Z,94.35
2018-04-02T00:56:34.126Z,94.24
2018-04-02T00:59:01.737Z,94.25
2018-04-02T01:01:29.276Z,94.30
2018-04-02T01:03:56.837Z,94.43
2018-04-02T01:06:24.509Z,94.63
2018-04-02T01:08:52.190Z,94.88
2018-04-02T01:11:19.873Z,95.04
2018-04-02T01:13:48.279Z,95.32
2018-04-02T01:16:15.827Z,95.46
2018-04-02T01:18:43.424Z,95.38
2018-04-02T01:21:10.973Z,95.51
2018-04-02T01:23:38.569Z,95.64
2018-04-02T01:26:08.961Z,95.81
2018-04-02T01:28:36.587Z,95.95
2018-04-02T01:31:05.004Z,96.01
2018-04-02T01:33:32.580Z,96.04
2018-04-02T01:36:00.128Z,96.19
2018-04-02T01:38:27.700Z,96.34
2018-04-02T01:40:55.312Z,96.39
2018-04-02T01:43:24.041Z,96.37
2018-04-02T01:45:52.566Z,96.36
2018-04-02T01:48:21.780Z,96.38
2018-04-02T01:50:49.403Z,96.29
2018-04-02T01:53:16.968Z,96.41
2018-04-02T01:55:44.527Z,96.49
2018-04-02T01:58:12.148Z,96.52
2018-04-02T02:00:39.852Z,96.57
2018-04-02T02:03:07.706Z,96.54
2018-04-02T02:05:35.700Z,96.49
2018-04-02T02:08:03.264Z,96.47
2018-04-02T02:10:30.784Z,96.50
2018-04-02T02:12:58.300Z,96.45
2018-04-02T02:15:26.056Z,96.35
2018-04-02T02:17:53.624Z,96.37
2018-04-02T02:20:21.209Z,96.32
2018-04-02T02:22:49.365Z,96.24
2018-04-02T02:25:16.861Z,96.22
2018-04-02T02:27:44.461Z,96.26
2018-04-02T02:30:12.014Z,96.23
2018-04-02T02:32:39.558Z,96.26
2018-04-02T02:35:07.750Z,96.19
2018-04-02T02:37:35.693Z,96.18
2018-04-02T02:40:03.792Z,96.18
2018-04-02T02:42:31.368Z,96.25
2018-04-02T02:44:58.906Z,96.16
2018-04-02T02:47:26.504Z,96.21
2018-04-02T02:49:54.037Z,96.22
2018-04-02T02:52:21.633Z,96.28
2018-04-02T02:54:49.192Z,96.26
2018-04-02T02:57:21.318Z,96.21
2018-04-02T02:59:48.856Z,96.17
2018-04-02T03:02:16.385Z,96.17
2018-04-02T03:04:43.944Z,96.14
2018-04-02T03:07:11.518Z,96.12
2018-04-02T03:09:39.708Z,96.10
2018-04-02T03:12:07.868Z,96.10
2018-04-02T03:14:36.245Z,96.07
2018-04-02T03:17:03.823Z,96.04
2018-04-02T03:19:31.391Z,96.02
2018-04-02T03:21:58.900Z,96.05
2018-04-02T03:24:26.484Z,96.11
2018-04-02T03:26:54.199Z,96.10
2018-04-02T03:29:21.942Z,96.01
2018-04-02T03:31:49.579Z,96.01
2018-04-02T03:34:17.143Z,96.09
2018-04-02T03:36:44.717Z,96.17
2018-04-02T03:39:12.243Z,96.18
2018-04-02T03:41:39.791Z,96.15
2018-04-02T03:44:07.583Z,96.18
2018-04-02T03:46:35.830Z,96.15
2018-04-02T03:49:03.731Z,96.13
2018-04-02T03:51:31.775Z,96.08
2018-04-02T03:53:59.307Z,96.09
2018-04-02T03:56:26.880Z,96.08
2018-04-02T03:58:54.472Z,96.18
2018-04-02T04:01:22.080Z,96.18
2018-04-02T04:03:49.753Z,96.17
2018-04-02T04:06:17.356Z,96.19
2018-04-02T04:08:45.025Z,96.17
2018-04-02T04:11:12.515Z,96.14
2018-04-02T04:13:40.024Z,96.06
2018-04-02T04:16:07.576Z,96.08
2018-04-02T04:18:35.268Z,96.07
2018-04-02T04:21:03.802Z,96.05
2018-04-02T04:23:31.727Z,96.04
2018-04-02T04:26:00.144Z,96.02
2018-04-02T04:28:27.668Z,96.01
2018-04-02T04:30:55.176Z,96.06
2018-04-02T04:33:22.736Z,96.10
2018-04-02T04:35:50.362Z,96.06
2018-04-02T04:38:17.953Z,96.05
2018-04-02T04:40:45.525Z,96.05
2018-04-02T04:43:13.125Z,96.04
2018-04-02T04:45:40.657Z,96.01
2018-04-02T04:48:08.158Z,96.01
2018-04-02T04:50:35.733Z,96.01
2018-04-02T04:53:03.470Z,96.02
2018-04-02T04:55:32.059Z,96.07
2018-04-02T04:58:00.820Z,96.13
2018-04-02T05:00:28.576Z,96.14
2018-04-02T05:02:56.132Z,96.13
2018-04-02T05:05:23.665Z,96.11
2018-04-02T05:07:51.283Z,96.08
2018-04-02T05:10:19.916Z,96.07
2018-04-02T05:12:48.454Z,96.04
2018-04-02T05:15:16.789Z,96.04
2018-04-02T05:17:45.347Z,95.96
2018-04-02T05:20:12.917Z,95.95
2018-04-02T05:22:40.485Z,95.91
2018-04-02T05:25:08.060Z,95.87
2018-04-02T05:27:36.903Z,95.82
2018-04-02T05:30:04.980Z,95.79
2018-04-02T05:32:32.737Z,95.72
2018-04-02T05:35:01.494Z,95.67
2018-04-02T05:37:29.038Z,95.60
2018-04-02T05:39:56.620Z,95.53
2018-04-02T05:42:24.169Z,95.50
2018-04-02T05:44:51.992Z,95.49
2018-04-02T05:47:20.510Z,95.45
2018-04-02T05:49:48.546Z,95.39
2018-04-02T05:52:16.352Z,95.37
2018-04-02T05:54:43.880Z,95.34
2018-04-02T05:57:11.460Z,95.33
2018-04-02T05:59:39.012Z,95.29
2018-04-02T06:02:07.500Z,95.31
2018-04-02T06:04:36.205Z,95.33
2018-04-02T06:07:04.659Z,95.27
2018-04-02T06:09:33.306Z,95.28
2018-04-02T06:12:00.852Z,95.28
2018-04-02T06:14:28.399Z,95.23
2018-04-02T06:16:55.987Z,95.21
2018-04-02T06:19:23.764Z,95.09
2018-04-02T06:21:52.153Z,94.91
2018-04-02T06:24:20.584Z,94.89
2018-04-02T06:26:49.156Z,94.85
2018-04-02T06:29:16.724Z,94.78
2018-04-02T06:31:44.268Z,94.74
2018-04-02T06:34:12.461Z,94.67
2018-04-02T06:36:39.825Z,94.63
2018-04-02T06:39:07.989Z,94.62
2018-04-02T06:41:36.775Z,94.62
2018-04-02T06:44:05.307Z,94.58
2018-04-02T06:46:32.895Z,94.51
2018-04-02T06:49:00.448Z,94.39
2018-04-02T06:51:28.030Z,94.32
2018-04-02T06:53:55.887Z,94.27
2018-04-02T06:56:26.254Z,94.16
2018-04-02T06:58:54.047Z,94.20
2018-04-02T07:01:26.543Z,94.18
2018-04-02T07:03:55.448Z,94.12
2018-04-02T07:06:23.003Z,94.05
2018-04-02T07:08:50.520Z,94.00
2018-04-02T07:11:19.879Z,93.97
2018-04-02T07:13:48.798Z,93.89
2018-04-02T07:16:18.413Z,93.80
2018-04-02T07:18:47.215Z,93.71
2018-04-02T07:21:14.803Z,93.63
2018-04-02T07:23:42.364Z,93.53
2018-04-02T07:26:09.935Z,93.45
2018-04-02T07:28:37.645Z,93.38
2018-04-02T07:31:05.292Z,93.35
2018-04-02T07:33:33.376Z,93.19
2018-04-02T07:36:01.826Z,93.09
2018-04-02T07:38:29.367Z,92.92
2018-04-02T07:40:56.936Z,92.82
2018-04-02T07:43:24.442Z,92.88
2018-04-02T07:45:52.128Z,92.78
2018-04-02T07:48:20.394Z,92.71
2018-04-02T07:50:48.745Z,92.56
2018-04-02T07:53:17.120Z,92.57
2018-04-02T07:55:44.648Z,92.58
2018-04-02T07:58:12.259Z,92.66
2018-04-02T08:00:39.813Z,92.66
2018-04-02T08:03:07.449Z,92.65
2018-04-02T08:05:35.114Z,92.52
2018-04-02T08:08:02.709Z,92.64
2018-04-02T08:10:30.355Z,92.65
2018-04-02T08:12:57.869Z,92.64
2018-04-02T08:15:25.449Z,92.63
2018-04-02T08:17:53.042Z,92.62
2018-04-02T08:20:20.762Z,92.61
2018-04-02T08:22:48.481Z,92.37
2018-04-02T08:25:16.951Z,92.34
2018-04-02T08:27:45.444Z,91.97
2018-04-02T08:30:12.979Z,91.97
2018-04-02T08:32:40.605Z,91.83
2018-04-02T08:35:08.156Z,91.81
2018-04-02T08:37:39.935Z,92.01
2018-04-02T08:40:08.050Z,92.07
2018-04-02T08:42:35.719Z,91.85
2018-04-02T08:47:53.976Z,91.78
2018-04-02T08:50:21.556Z,91.29
2018-04-02T08:52:49.140Z,91.25
2018-04-02T09:04:15.566Z,91.16
2018-04-02T09:06:43.138Z,91.19
2018-04-02T09:09:10.687Z,91.19
2018-04-02T09:21:06.695Z,91.46
2018-04-02T09:23:34.236Z,91.52
2018-04-02T09:26:01.789Z,91.66
2018-04-02T09:28:29.767Z,91.76
2018-04-02T09:31:09.859Z,91.81
2018-04-02T09:39:33.219Z,91.56
2018-04-02T09:42:00.851Z,91.36
2018-04-02T09:44:28.450Z,91.21
2018-04-02T09:55:17.468Z,90.34
2018-04-02T09:57:45.050Z,90.10
2018-04-02T10:00:12.639Z,89.97
2018-04-02T10:02:40.219Z,89.79
2018-04-02T10:14:00.580Z,90.19
2018-04-02T10:16:28.146Z,90.31
2018-04-02T10:18:55.779Z,90.36
2018-04-02T10:29:35.465Z,89.83
2018-04-02T10:32:03.056Z,89.72
2018-04-02T10:34:30.639Z,89.71
2018-04-02T10:36:58.235Z,89.25
2018-04-02T10:39:26.027Z,89.15
2018-04-02T10:42:00.853Z,88.42
2018-04-02T10:44:29.443Z,88.49
2018-04-02T10:46:57.112Z,88.33
2018-04-02T10:49:24.755Z,88.24
2018-04-02T10:51:52.306Z,88.36
2018-04-02T11:02:41.850Z,87.62
2018-04-02T11:05:09.472Z,87.50
2018-04-02T11:07:37.048Z,87.59
2018-04-02T11:10:04.645Z,87.33
2018-04-02T11:12:36.019Z,87.52
2018-04-02T11:15:04.767Z,87.51
2018-04-02T11:17:39.876Z,87.38
2018-04-02T11:22:44.204Z,87.23
2018-04-02T11:25:11.783Z,87.44
2018-04-02T11:27:39.435Z,87.23
2018-04-02T11:30:12.983Z,87.26
2018-04-02T11:35:47.802Z,87.22
2018-04-02T11:38:15.400Z,87.13
2018-04-02T11:40:43.248Z,87.09
2018-04-02T11:43:10.932Z,86.93
2018-04-02T11:45:38.657Z,86.83
2018-04-02T11:51:11.770Z,86.93
2018-04-02T11:56:55.881Z,87.01
2018-04-02T11:59:23.436Z,87.14
2018-04-02T12:01:51.016Z,87.25
2018-04-02T12:07:19.250Z,87.30
2018-04-02T12:09:48.836Z,87.42
2018-04-02T12:12:18.575Z,87.49
2018-04-02T12:14:46.232Z,87.66
2018-04-02T12:17:13.913Z,87.65
2018-04-02T12:19:41.568Z,87.53
2018-04-02T12:25:26.084Z,87.40
2018-04-02T12:30:47.431Z,88.01
2018-04-02T12:33:15.035Z,88.17
2018-04-02T12:35:42.695Z,88.34
2018-04-02T12:38:10.311Z,88.45
2018-04-02T12:40:40.925Z,88.64
2018-04-02T12:43:12.514Z,88.93
2018-04-02T12:45:41.501Z,89.03
2018-04-02T12:48:12.380Z,89.11
2018-04-02T12:50:39.922Z,89.17
2018-04-02T12:53:07.489Z,89.25
2018-04-02T12:55:35.220Z,89.86
2018-04-02T12:58:12.135Z,89.95
2018-04-02T13:00:44.046Z,89.86
2018-04-02T13:06:14.437Z,89.63
2018-04-02T13:08:42.047Z,89.58
2018-04-02T13:11:09.663Z,89.65
2018-04-02T13:24:31.672Z,89.18
2018-04-02T13:26:59.210Z,88.93
2018-04-02T13:29:26.748Z,88.97
2018-04-02T13:31:56.298Z,88.87
2018-04-02T13:34:32.192Z,88.79
2018-04-02T13:37:03.904Z,88.62
2018-04-02T13:39:31.494Z,88.29
2018-04-02T13:41:59.185Z,87.68
2018-04-02T13:44:26.816Z,86.56
2018-04-02T13:58:29.409Z,85.88
2018-04-02T14:00:56.961Z,85.71
2018-04-02T14:03:24.604Z,85.51
2018-04-02T14:05:53.213Z,84.77
2018-04-02T14:14:23.233Z,85.13
2018-04-02T14:16:51.084Z,84.40
2018-04-02T14:19:18.613Z,84.49
2018-04-02T14:30:28.000Z,82.83
2018-04-02T14:32:55.516Z,82.61
2018-04-02T14:35:23.079Z,81.87
2018-04-02T14:37:50.678Z,81.95
2018-04-02T14:40:20.102Z,81.25
2018-04-02T14:42:52.879Z,80.19
2018-04-02T14:45:24.998Z,80.76
2018-04-02T14:47:52.597Z,79.47
2018-04-02T14:50:20.181Z,79.51
2018-04-02T14:52:47.754Z,79.47
2018-04-02T14:55:15.557Z,78.78
2018-04-02T14:57:45.157Z,78.04
2018-04-02T15:00:13.681Z,77.65
2018-04-02T15:02:43.968Z,77.48
2018-04-02T15:05:11.516Z,76.86
2018-04-02T15:07:39.057Z,77.34
2018-04-02T15:10:06.619Z,77.10
2018-04-02T15:12:34.193Z,78.06
2018-04-02T15:15:01.890Z,77.64
2018-04-02T15:17:29.584Z,77.96
2018-04-02T15:20:00.140Z,78.34
2018-04-02T15:22:27.712Z,78.55
2018-04-02T15:24:55.276Z,78.54
2018-04-02T15:27:22.852Z,78.51
2018-04-02T15:29:50.476Z,78.44
2018-04-02T15:32:18.096Z,78.43
2018-04-02T15:34:45.592Z,78.77
2018-04-02T15:37:29.901Z,78.62
2018-04-02T15:39:57.428Z,78.21
2018-04-02T15:42:24.990Z,78.18
2018-04-02T15:44:52.502Z,78.00
2018-04-02T15:47:20.084Z,77.64
2018-04-02T15:49:50.148Z,77.97
2018-04-02T15:52:17.810Z,78.51
2018-04-02T15:54:48.154Z,79.17
2018-04-02T15:57:15.691Z,80.08
2018-04-02T15:59:43.218Z,80.68
2018-04-02T16:02:10.823Z,81.34
2018-04-02T16:04:38.477Z,81.78
2018-04-02T16:14:25.122Z,82.44
2018-04-02T16:16:52.739Z,82.87
2018-04-02T16:19:20.276Z,83.06
2018-04-02T16:21:48.408Z,83.08
2018-04-02T16:32:59.500Z,84.07
2018-04-02T16:35:27.024Z,84.09
2018-04-02T16:37:54.622Z,83.82
2018-04-02T16:49:29.382Z,83.21
2018-04-02T16:51:56.973Z,82.65
2018-04-02T16:54:24.563Z,81.88
2018-04-02T17:08:10.660Z,81.50
2018-04-02T17:10:38.425Z,81.64
2018-04-02T17:13:05.988Z,81.70
2018-04-02T17:24:42.012Z,82.15
2018-04-02T17:27:09.619Z,82.15
2018-04-02T17:29:37.261Z,82.30
2018-04-02T17:41:12.732Z,82.85
2018-04-02T17:43:40.286Z,82.96
2018-04-02T17:46:08.007Z,83.00
2018-04-02T17:57:17.590Z,83.14
2018-04-02T17:59:45.144Z,83.16
2018-04-02T18:02:12.666Z,83.04
2018-04-02T18:04:42.087Z,82.95
2018-04-02T18:15:16.054Z,82.84
2018-04-02T18:17:43.620Z,82.89
2018-04-02T18:20:11.160Z,82.97
2018-04-02T18:22:39.085Z,83.05
2018-04-02T18:25:08.076Z,83.07
2018-04-02T18:32:44.673Z,83.16
2018-04-02T18:35:12.202Z,83.17
2018-04-02T18:37:39.752Z,83.19
2018-04-02T18:47:56.621Z,83.31
2018-04-02T18:50:24.247Z,83.37
2018-04-02T18:52:51.821Z,83.41
2018-04-02T18:55:19.368Z,83.46
2018-04-02T19:03:17.368Z,83.63
2018-04-02T19:05:45.054Z,83.68
2018-04-02T19:08:12.711Z,83.73
2018-04-02T19:10:40.285Z,83.76
2018-04-02T19:13:07.902Z,83.94
2018-04-02T19:15:38.269Z,83.96
2018-04-02T19:18:08.970Z,84.07
2018-04-02T19:20:48.363Z,84.11
2018-04-02T19:23:15.962Z,84.08
2018-04-02T19:25:43.523Z,84.18
2018-04-02T19:28:11.116Z,84.29
2018-04-02T19:30:38.749Z,84.29
2018-04-02T19:33:08.634Z,84.20
2018-04-02T19:35:41.362Z,84.20
2018-04-02T19:38:16.201Z,84.28
2018-04-02T19:40:43.775Z,84.31
2018-04-02T19:43:11.328Z,84.40
2018-04-02T19:45:38.880Z,84.37
2018-04-02T19:48:06.604Z,84.40
2018-04-02T19:50:37.590Z,84.45
2018-04-02T19:53:12.205Z,84.54
2018-04-02T19:55:45.151Z,84.59
2018-04-02T19:58:12.856Z,84.70
2018-04-02T20:00:40.400Z,84.92
2018-04-02T20:03:09.754Z,84.91
2018-04-02T20:11:30.196Z,84.94
2018-04-02T20:14:07.804Z,84.94
2018-04-02T20:16:35.340Z,85.22
2018-04-02T20:19:02.928Z,85.27
2018-04-02T20:21:30.478Z,85.22
2018-04-02T20:26:39.811Z,85.34
2018-04-02T20:29:07.662Z,85.55
2018-04-02T20:31:35.288Z,85.79
2018-04-02T20:34:02.815Z,85.77
2018-04-02T20:36:30.415Z,85.77
2018-04-02T20:38:57.968Z,86.02
2018-04-02T20:41:25.694Z,85.97
2018-04-02T20:43:53.356Z,86.23
2018-04-02T20:46:21.869Z,86.59
2018-04-02T20:48:49.769Z,86.64
2018-04-02T20:51:17.314Z,86.73
2018-04-02T20:53:44.862Z,87.15
2018-04-02T20:56:12.423Z,87.34
2018-04-02T20:58:40.361Z,87.51
2018-04-02T21:01:20.532Z,87.60
2018-04-02T21:03:52.221Z,87.81
2018-04-02T21:06:22.352Z,87.84
2018-04-02T21:08:49.912Z,87.68
2018-04-02T21:11:17.460Z,87.61
2018-04-02T21:13:45.080Z,87.69
2018-04-02T21:16:21.052Z,87.90
2018-04-02T21:18:53.604Z,88.12
2018-04-02T21:21:22.134Z,88.12
2018-04-02T21:23:49.830Z,88.35
2018-04-02T21:26:17.436Z,88.50
2018-04-02T21:28:44.995Z,88.59
2018-04-02T21:31:12.549Z,88.75
2018-04-02T21:33:41.585Z,88.79
2018-04-02T21:36:10.238Z,88.64
2018-04-02T21:38:37.893Z,88.62
2018-04-02T21:41:06.010Z,88.61
2018-04-02T21:43:33.640Z,88.55
2018-04-02T21:46:01.207Z,88.50
2018-04-02T21:48:28.736Z,88.51
2018-04-02T21:50:57.452Z,88.49
2018-04-02T21:53:25.923Z,88.56
2018-04-02T21:55:53.873Z,88.55
2018-04-02T21:58:22.368Z,88.51
2018-04-02T22:00:49.912Z,88.61
2018-04-02T22:03:17.427Z,88.62
2018-04-02T22:05:44.985Z,88.64
2018-04-02T22:08:12.799Z,88.72
2018-04-02T22:10:41.041Z,88.79
2018-04-02T22:13:10.415Z,88.75
2018-04-02T22:15:38.064Z,88.74
2018-04-02T22:18:05.600Z,88.75
2018-04-02T22:20:33.172Z,88.70
2018-04-02T22:23:00.728Z,88.70
2018-04-02T22:25:28.329Z,88.68
2018-04-02T22:27:56.385Z,88.66
2018-04-02T22:30:24.400Z,88.68
2018-04-02T22:32:52.349Z,88.68
2018-04-02T22:35:19.915Z,88.65
2018-04-02T22:37:47.470Z,88.68
2018-04-02T22:40:15.064Z,88.62
2018-04-02T22:42:42.691Z,88.62
2018-04-02T22:45:10.314Z,88.61
2018-04-02T22:47:37.904Z,88.60
2018-04-02T22:50:05.568Z,88.60
2018-04-02T22:52:33.106Z,88.60
2018-04-02T22:55:00.669Z,88.66
2018-04-02T22:57:28.188Z,88.63
2018-04-02T22:59:55.739Z,88.66
2018-04-02T23:02:23.327Z,88.66
2018-04-02T23:04:50.942Z,88.64
2018-04-02T23:07:18.584Z,88.63
2018-04-02T23:09:46.211Z,88.63
2018-04-02T23:12:13.830Z,88.63
2018-04-02T23:14:41.378Z,88.63
2018-04-02T23:17:08.993Z,88.63
2018-04-02T23:19:36.729Z,88.67
2018-04-02T23:22:04.525Z,88.69
2018-04-02T23:24:32.489Z,88.70
2018-04-02T23:27:00.053Z,88.69
2018-04-02T23:29:27.610Z,88.72
2018-04-02T23:31:55.155Z,88.72
2018-04-02T23:34:22.791Z,88.76
2018-04-02T23:36:50.347Z,88.79
2018-04-02T23:39:17.949Z,88.79
2018-04-02T23:41:45.594Z,88.81
2018-04-02T23:44:13.168Z,88.84
2018-04-02T23:46:40.745Z,88.98
2018-04-02T23:49:08.323Z,89.09
2018-04-02T23:51:35.951Z,89.09
2018-04-02T23:56:35.381Z,89.07
2018-04-02T23:59:03.075Z,89.09
